sensor_id;sensor_type;location;lat;lon;timestamp;P1;durP1;ratioP1;P2;durP2;ratioP2
46653;SDS011;38960;51.074;17.004;2024-02-14T00:01:00;59.08;;;26.67;;
46653;SDS011;38960;51.074;17.004;2024-02-14T00:03:27;54.43;;;28.90;;
46653;SDS011;38960;51.074;17.004;2024-02-14T00:05:52;57.42;;;27.33;;
46653;SDS011;38960;51.074;17.004;2024-02-14T00:08:18;62.57;;;29.27;;
46653;SDS011;38960;51.074;17.004;2024-02-14T00:10:46;68.17;;;31.83;;
46653;SDS011;38960;51.074;17.004;2024-02-14T00:13:13;68.77;;;29.67;;
46653;SDS011;38960;51.074;17.004;2024-02-14T00:15:39;63.97;;;30.63;;
46653;SDS011;38960;51.074;17.004;2024-02-14T00:18:05;57.83;;;29.20;;
46653;SDS011;38960;51.074;17.004;2024-02-14T00:20:31;61.17;;;29.97;;
46653;SDS011;38960;51.074;17.004;2024-02-14T00:22:57;61.00;;;30.37;;
46653;SDS011;38960;51.074;17.004;2024-02-14T00:25:23;56.45;;;27.83;;
46653;SDS011;38960;51.074;17.004;2024-02-14T00:27:48;55.77;;;29.60;;
46653;SDS011;38960;51.074;17.004;2024-02-14T00:30:15;67.33;;;30.73;;
46653;SDS011;38960;51.074;17.004;2024-02-14T00:32:40;56.40;;;28.33;;
46653;SDS011;38960;51.074;17.004;2024-02-14T00:35:06;58.30;;;30.23;;
46653;SDS011;38960;51.074;17.004;2024-02-14T00:37:32;65.03;;;32.13;;
46653;SDS011;38960;51.074;17.004;2024-02-14T00:39:58;61.23;;;30.50;;
46653;SDS011;38960;51.074;17.004;2024-02-14T00:42:24;64.00;;;32.07;;
46653;SDS011;38960;51.074;17.004;2024-02-14T00:44:50;61.53;;;30.97;;
46653;SDS011;38960;51.074;17.004;2024-02-14T00:47:22;60.85;;;30.50;;
46653;SDS011;38960;51.074;17.004;2024-02-14T00:49:48;65.72;;;34.20;;
46653;SDS011;38960;51.074;17.004;2024-02-14T00:52:13;64.03;;;32.50;;
46653;SDS011;38960;51.074;17.004;2024-02-14T00:54:39;62.33;;;31.63;;
46653;SDS011;38960;51.074;17.004;2024-02-14T00:57:05;67.47;;;33.97;;
46653;SDS011;38960;51.074;17.004;2024-02-14T00:59:30;73.30;;;34.70;;
46653;SDS011;38960;51.074;17.004;2024-02-14T01:01:56;73.60;;;34.10;;
46653;SDS011;38960;51.074;17.004;2024-02-14T01:04:22;65.45;;;33.95;;
46653;SDS011;38960;51.074;17.004;2024-02-14T01:06:48;73.70;;;36.23;;
46653;SDS011;38960;51.074;17.004;2024-02-14T01:09:14;71.20;;;33.65;;
46653;SDS011;38960;51.074;17.004;2024-02-14T01:11:41;67.43;;;33.33;;
46653;SDS011;38960;51.074;17.004;2024-02-14T01:14:06;69.80;;;32.83;;
46653;SDS011;38960;51.074;17.004;2024-02-14T01:16:32;66.87;;;32.57;;
46653;SDS011;38960;51.074;17.004;2024-02-14T01:19:03;65.80;;;31.80;;
46653;SDS011;38960;51.074;17.004;2024-02-14T01:21:29;64.03;;;31.90;;
46653;SDS011;38960;51.074;17.004;2024-02-14T01:23:55;60.00;;;31.97;;
46653;SDS011;38960;51.074;17.004;2024-02-14T01:26:21;61.07;;;31.70;;
46653;SDS011;38960;51.074;17.004;2024-02-14T01:28:47;59.53;;;29.43;;
46653;SDS011;38960;51.074;17.004;2024-02-14T01:31:13;60.22;;;31.05;;
46653;SDS011;38960;51.074;17.004;2024-02-14T01:33:39;59.67;;;31.20;;
46653;SDS011;38960;51.074;17.004;2024-02-14T01:36:05;65.73;;;32.87;;
46653;SDS011;38960;51.074;17.004;2024-02-14T01:38:31;58.77;;;30.23;;
46653;SDS011;38960;51.074;17.004;2024-02-14T01:41:05;61.30;;;30.33;;
46653;SDS011;38960;51.074;17.004;2024-02-14T01:43:31;62.37;;;31.03;;
46653;SDS011;38960;51.074;17.004;2024-02-14T01:46:03;57.57;;;28.30;;
46653;SDS011;38960;51.074;17.004;2024-02-14T01:48:30;64.73;;;29.27;;
46653;SDS011;38960;51.074;17.004;2024-02-14T01:50:56;59.47;;;30.53;;
46653;SDS011;38960;51.074;17.004;2024-02-14T01:53:23;57.47;;;28.40;;
46653;SDS011;38960;51.074;17.004;2024-02-14T01:55:50;60.13;;;28.50;;
46653;SDS011;38960;51.074;17.004;2024-02-14T01:58:16;61.53;;;30.17;;
46653;SDS011;38960;51.074;17.004;2024-02-14T02:00:43;51.73;;;25.50;;
46653;SDS011;38960;51.074;17.004;2024-02-14T02:03:11;51.20;;;26.30;;
46653;SDS011;38960;51.074;17.004;2024-02-14T02:05:38;50.60;;;26.93;;
46653;SDS011;38960;51.074;17.004;2024-02-14T02:08:04;53.80;;;28.63;;
46653;SDS011;38960;51.074;17.004;2024-02-14T02:10:30;54.73;;;28.50;;
46653;SDS011;38960;51.074;17.004;2024-02-14T02:12:58;56.93;;;27.37;;
46653;SDS011;38960;51.074;17.004;2024-02-14T02:15:25;54.80;;;27.93;;
46653;SDS011;38960;51.074;17.004;2024-02-14T02:17:51;56.93;;;28.97;;
46653;SDS011;38960;51.074;17.004;2024-02-14T02:20:18;58.97;;;27.40;;
46653;SDS011;38960;51.074;17.004;2024-02-14T02:22:46;56.57;;;28.73;;
46653;SDS011;38960;51.074;17.004;2024-02-14T02:25:12;54.10;;;26.67;;
46653;SDS011;38960;51.074;17.004;2024-02-14T02:27:38;59.30;;;27.50;;
46653;SDS011;38960;51.074;17.004;2024-02-14T02:30:04;51.50;;;27.13;;
46653;SDS011;38960;51.074;17.004;2024-02-14T02:32:32;58.30;;;28.80;;
46653;SDS011;38960;51.074;17.004;2024-02-14T02:34:58;55.80;;;27.77;;
46653;SDS011;38960;51.074;17.004;2024-02-14T02:37:25;55.13;;;27.80;;
46653;SDS011;38960;51.074;17.004;2024-02-14T02:39:51;54.00;;;28.33;;
46653;SDS011;38960;51.074;17.004;2024-02-14T02:42:16;53.33;;;27.10;;
46653;SDS011;38960;51.074;17.004;2024-02-14T02:44:46;62.23;;;29.43;;
46653;SDS011;38960;51.074;17.004;2024-02-14T02:47:12;54.23;;;26.50;;
46653;SDS011;38960;51.074;17.004;2024-02-14T02:49:38;53.77;;;27.33;;
46653;SDS011;38960;51.074;17.004;2024-02-14T02:52:03;57.80;;;28.13;;
46653;SDS011;38960;51.074;17.004;2024-02-14T02:54:30;59.47;;;27.67;;
46653;SDS011;38960;51.074;17.004;2024-02-14T02:56:56;61.57;;;28.17;;
46653;SDS011;38960;51.074;17.004;2024-02-14T02:59:21;57.47;;;27.57;;
46653;SDS011;38960;51.074;17.004;2024-02-14T03:01:47;52.87;;;26.83;;
46653;SDS011;38960;51.074;17.004;2024-02-14T03:04:19;56.23;;;26.00;;
46653;SDS011;38960;51.074;17.004;2024-02-14T03:06:44;52.27;;;26.40;;
46653;SDS011;38960;51.074;17.004;2024-02-14T03:09:11;49.70;;;26.80;;
46653;SDS011;38960;51.074;17.004;2024-02-14T03:11:37;55.57;;;25.63;;
46653;SDS011;38960;51.074;17.004;2024-02-14T03:14:03;51.30;;;25.10;;
46653;SDS011;38960;51.074;17.004;2024-02-14T03:16:29;49.47;;;26.77;;
46653;SDS011;38960;51.074;17.004;2024-02-14T03:18:55;55.90;;;25.30;;
46653;SDS011;38960;51.074;17.004;2024-02-14T03:21:20;46.23;;;24.33;;
46653;SDS011;38960;51.074;17.004;2024-02-14T03:23:46;45.10;;;25.10;;
46653;SDS011;38960;51.074;17.004;2024-02-14T03:26:12;47.37;;;25.30;;
46653;SDS011;38960;51.074;17.004;2024-02-14T03:28:38;46.20;;;26.67;;
46653;SDS011;38960;51.074;17.004;2024-02-14T03:31:04;47.13;;;25.03;;
46653;SDS011;38960;51.074;17.004;2024-02-14T03:33:30;46.20;;;24.73;;
46653;SDS011;38960;51.074;17.004;2024-02-14T03:35:55;46.20;;;24.27;;
46653;SDS011;38960;51.074;17.004;2024-02-14T03:38:25;55.43;;;26.47;;
46653;SDS011;38960;51.074;17.004;2024-02-14T03:40:54;53.27;;;26.67;;
46653;SDS011;38960;51.074;17.004;2024-02-14T03:43:20;48.23;;;26.03;;
46653;SDS011;38960;51.074;17.004;2024-02-14T03:45:47;54.93;;;26.17;;
46653;SDS011;38960;51.074;17.004;2024-02-14T03:48:12;54.10;;;27.20;;
46653;SDS011;38960;51.074;17.004;2024-02-14T03:50:38;61.20;;;30.00;;
46653;SDS011;38960;51.074;17.004;2024-02-14T03:53:04;52.90;;;27.33;;
46653;SDS011;38960;51.074;17.004;2024-02-14T03:55:30;54.43;;;27.33;;
46653;SDS011;38960;51.074;17.004;2024-02-14T03:57:56;47.83;;;26.53;;
46653;SDS011;38960;51.074;17.004;2024-02-14T04:00:22;57.00;;;26.53;;
46653;SDS011;38960;51.074;17.004;2024-02-14T04:02:47;53.47;;;27.53;;
46653;SDS011;38960;51.074;17.004;2024-02-14T04:05:14;51.73;;;26.10;;
46653;SDS011;38960;51.074;17.004;2024-02-14T04:07:40;50.87;;;27.23;;
46653;SDS011;38960;51.074;17.004;2024-02-14T04:10:06;46.27;;;26.27;;
46653;SDS011;38960;51.074;17.004;2024-02-14T04:12:50;55.47;;;27.43;;
46653;SDS011;38960;51.074;17.004;2024-02-14T04:15:15;56.10;;;28.23;;
46653;SDS011;38960;51.074;17.004;2024-02-14T04:17:41;60.03;;;28.57;;
46653;SDS011;38960;51.074;17.004;2024-02-14T04:20:06;62.43;;;30.33;;
46653;SDS011;38960;51.074;17.004;2024-02-14T04:22:32;59.73;;;30.20;;
46653;SDS011;38960;51.074;17.004;2024-02-14T04:24:58;46.83;;;26.77;;
46653;SDS011;38960;51.074;17.004;2024-02-14T04:27:24;55.93;;;27.93;;
46653;SDS011;38960;51.074;17.004;2024-02-14T04:29:50;58.67;;;29.37;;
46653;SDS011;38960;51.074;17.004;2024-02-14T04:32:15;58.73;;;29.43;;
46653;SDS011;38960;51.074;17.004;2024-02-14T04:34:42;48.57;;;27.07;;
46653;SDS011;38960;51.074;17.004;2024-02-14T04:37:08;56.17;;;28.20;;
46653;SDS011;38960;51.074;17.004;2024-02-14T04:39:41;53.27;;;25.90;;
46653;SDS011;38960;51.074;17.004;2024-02-14T04:42:07;56.53;;;26.07;;
46653;SDS011;38960;51.074;17.004;2024-02-14T04:44:33;53.77;;;27.63;;
46653;SDS011;38960;51.074;17.004;2024-02-14T04:46:59;52.47;;;27.10;;
46653;SDS011;38960;51.074;17.004;2024-02-14T04:49:25;60.23;;;27.77;;
46653;SDS011;38960;51.074;17.004;2024-02-14T04:51:57;54.13;;;27.07;;
46653;SDS011;38960;51.074;17.004;2024-02-14T04:54:23;57.55;;;28.42;;
46653;SDS011;38960;51.074;17.004;2024-02-14T04:56:48;53.83;;;28.47;;
46653;SDS011;38960;51.074;17.004;2024-02-14T04:59:14;51.50;;;27.20;;
46653;SDS011;38960;51.074;17.004;2024-02-14T05:01:39;52.03;;;27.17;;
46653;SDS011;38960;51.074;17.004;2024-02-14T05:04:05;53.43;;;27.03;;
46653;SDS011;38960;51.074;17.004;2024-02-14T05:06:32;60.17;;;27.53;;
46653;SDS011;38960;51.074;17.004;2024-02-14T05:08:57;48.47;;;26.00;;
46653;SDS011;38960;51.074;17.004;2024-02-14T05:11:23;57.03;;;26.87;;
46653;SDS011;38960;51.074;17.004;2024-02-14T05:13:49;58.27;;;26.47;;
46653;SDS011;38960;51.074;17.004;2024-02-14T05:16:17;56.87;;;26.23;;
46653;SDS011;38960;51.074;17.004;2024-02-14T05:18:44;52.57;;;27.37;;
46653;SDS011;38960;51.074;17.004;2024-02-14T05:21:09;56.97;;;27.73;;
46653;SDS011;38960;51.074;17.004;2024-02-14T05:23:35;49.63;;;26.23;;
46653;SDS011;38960;51.074;17.004;2024-02-14T05:26:03;51.17;;;27.33;;
46653;SDS011;38960;51.074;17.004;2024-02-14T05:28:33;52.20;;;28.17;;
46653;SDS011;38960;51.074;17.004;2024-02-14T05:30:59;52.10;;;26.60;;
46653;SDS011;38960;51.074;17.004;2024-02-14T05:33:25;54.97;;;27.20;;
46653;SDS011;38960;51.074;17.004;2024-02-14T05:35:51;53.73;;;27.63;;
46653;SDS011;38960;51.074;17.004;2024-02-14T05:38:17;56.10;;;28.30;;
46653;SDS011;38960;51.074;17.004;2024-02-14T05:40:46;53.00;;;27.73;;
46653;SDS011;38960;51.074;17.004;2024-02-14T05:43:11;51.20;;;27.90;;
46653;SDS011;38960;51.074;17.004;2024-02-14T05:45:37;48.77;;;25.03;;
46653;SDS011;38960;51.074;17.004;2024-02-14T05:48:03;48.00;;;25.40;;
46653;SDS011;38960;51.074;17.004;2024-02-14T05:50:29;56.33;;;27.07;;
46653;SDS011;38960;51.074;17.004;2024-02-14T05:52:54;56.77;;;25.23;;
46653;SDS011;38960;51.074;17.004;2024-02-14T05:55:22;47.37;;;25.00;;
46653;SDS011;38960;51.074;17.004;2024-02-14T05:57:48;67.83;;;27.80;;
46653;SDS011;38960;51.074;17.004;2024-02-14T06:00:21;50.10;;;26.60;;
46653;SDS011;38960;51.074;17.004;2024-02-14T06:02:47;55.17;;;27.57;;
46653;SDS011;38960;51.074;17.004;2024-02-14T06:05:13;51.87;;;26.23;;
46653;SDS011;38960;51.074;17.004;2024-02-14T06:07:39;53.73;;;26.20;;
46653;SDS011;38960;51.074;17.004;2024-02-14T06:10:26;49.47;;;24.50;;
46653;SDS011;38960;51.074;17.004;2024-02-14T06:12:52;51.80;;;26.48;;
46653;SDS011;38960;51.074;17.004;2024-02-14T06:15:17;43.53;;;25.07;;
46653;SDS011;38960;51.074;17.004;2024-02-14T06:17:43;46.90;;;23.63;;
46653;SDS011;38960;51.074;17.004;2024-02-14T06:20:13;46.90;;;24.23;;
46653;SDS011;38960;51.074;17.004;2024-02-14T06:22:38;52.97;;;24.80;;
46653;SDS011;38960;51.074;17.004;2024-02-14T06:25:04;49.70;;;24.60;;
46653;SDS011;38960;51.074;17.004;2024-02-14T06:27:31;47.97;;;23.00;;
46653;SDS011;38960;51.074;17.004;2024-02-14T06:29:57;44.37;;;23.63;;
46653;SDS011;38960;51.074;17.004;2024-02-14T06:32:24;49.13;;;23.10;;
46653;SDS011;38960;51.074;17.004;2024-02-14T06:34:50;42.77;;;22.20;;
46653;SDS011;38960;51.074;17.004;2024-02-14T06:37:16;39.50;;;21.40;;
46653;SDS011;38960;51.074;17.004;2024-02-14T06:39:41;49.17;;;22.73;;
46653;SDS011;38960;51.074;17.004;2024-02-14T06:42:07;40.00;;;21.27;;
46653;SDS011;38960;51.074;17.004;2024-02-14T06:44:32;43.40;;;22.23;;
46653;SDS011;38960;51.074;17.004;2024-02-14T06:46:58;43.43;;;21.53;;
46653;SDS011;38960;51.074;17.004;2024-02-14T06:49:23;43.20;;;22.67;;
46653;SDS011;38960;51.074;17.004;2024-02-14T06:51:49;53.30;;;23.27;;
46653;SDS011;38960;51.074;17.004;2024-02-14T06:54:14;42.70;;;20.87;;
46653;SDS011;38960;51.074;17.004;2024-02-14T06:56:42;46.00;;;21.03;;
46653;SDS011;38960;51.074;17.004;2024-02-14T06:59:19;46.30;;;24.93;;
46653;SDS011;38960;51.074;17.004;2024-02-14T07:01:44;44.50;;;20.40;;
46653;SDS011;38960;51.074;17.004;2024-02-14T07:04:10;39.33;;;21.10;;
46653;SDS011;38960;51.074;17.004;2024-02-14T07:06:35;41.63;;;21.73;;
46653;SDS011;38960;51.074;17.004;2024-02-14T07:09:06;37.87;;;20.60;;
46653;SDS011;38960;51.074;17.004;2024-02-14T07:11:32;34.67;;;18.80;;
46653;SDS011;38960;51.074;17.004;2024-02-14T07:13:57;37.70;;;19.50;;
46653;SDS011;38960;51.074;17.004;2024-02-14T07:16:23;32.77;;;17.90;;
46653;SDS011;38960;51.074;17.004;2024-02-14T07:18:49;35.67;;;19.27;;
46653;SDS011;38960;51.074;17.004;2024-02-14T07:21:14;35.80;;;18.73;;
46653;SDS011;38960;51.074;17.004;2024-02-14T07:23:40;38.30;;;19.90;;
46653;SDS011;38960;51.074;17.004;2024-02-14T07:26:05;32.33;;;18.80;;
46653;SDS011;38960;51.074;17.004;2024-02-14T07:28:37;37.87;;;19.87;;
46653;SDS011;38960;51.074;17.004;2024-02-14T07:31:03;33.17;;;18.95;;
46653;SDS011;38960;51.074;17.004;2024-02-14T07:33:28;35.50;;;19.63;;
46653;SDS011;38960;51.074;17.004;2024-02-14T07:35:55;34.60;;;17.63;;
46653;SDS011;38960;51.074;17.004;2024-02-14T07:38:20;32.33;;;18.10;;
46653;SDS011;38960;51.074;17.004;2024-02-14T07:40:49;38.87;;;19.20;;
46653;SDS011;38960;51.074;17.004;2024-02-14T07:43:15;39.78;;;16.70;;
46653;SDS011;38960;51.074;17.004;2024-02-14T07:45:40;43.17;;;19.07;;
46653;SDS011;38960;51.074;17.004;2024-02-14T07:48:06;41.13;;;19.05;;
46653;SDS011;38960;51.074;17.004;2024-02-14T07:50:35;33.50;;;17.33;;
46653;SDS011;38960;51.074;17.004;2024-02-14T07:53:01;31.50;;;17.48;;
46653;SDS011;38960;51.074;17.004;2024-02-14T07:55:32;35.33;;;17.65;;
46653;SDS011;38960;51.074;17.004;2024-02-14T07:57:58;44.35;;;16.33;;
46653;SDS011;38960;51.074;17.004;2024-02-14T08:00:44;29.40;;;16.10;;
46653;SDS011;38960;51.074;17.004;2024-02-14T08:03:09;33.55;;;16.35;;
46653;SDS011;38960;51.074;17.004;2024-02-14T08:05:35;25.33;;;14.85;;
46653;SDS011;38960;51.074;17.004;2024-02-14T08:08:00;28.75;;;16.05;;
46653;SDS011;38960;51.074;17.004;2024-02-14T08:10:26;32.47;;;15.68;;
46653;SDS011;38960;51.074;17.004;2024-02-14T08:12:52;28.10;;;14.88;;
46653;SDS011;38960;51.074;17.004;2024-02-14T08:18:07;24.52;;;13.43;;
46653;SDS011;38960;51.074;17.004;2024-02-14T08:20:37;24.17;;;14.05;;
46653;SDS011;38960;51.074;17.004;2024-02-14T08:36:28;22.55;;;12.18;;
46653;SDS011;38960;51.074;17.004;2024-02-14T08:38:54;19.35;;;11.00;;
46653;SDS011;38960;51.074;17.004;2024-02-14T08:41:37;20.52;;;11.65;;
46653;SDS011;38960;51.074;17.004;2024-02-14T08:44:03;21.48;;;12.48;;
46653;SDS011;38960;51.074;17.004;2024-02-14T08:46:32;20.63;;;10.30;;
46653;SDS011;38960;51.074;17.004;2024-02-14T08:48:59;18.52;;;10.93;;
46653;SDS011;38960;51.074;17.004;2024-02-14T08:51:27;17.05;;;10.85;;
46653;SDS011;38960;51.074;17.004;2024-02-14T08:53:52;19.13;;;11.98;;
46653;SDS011;38960;51.074;17.004;2024-02-14T08:56:20;20.83;;;10.82;;
46653;SDS011;38960;51.074;17.004;2024-02-14T08:58:47;20.90;;;10.48;;
46653;SDS011;38960;51.074;17.004;2024-02-14T09:01:13;17.80;;;9.43;;
46653;SDS011;38960;51.074;17.004;2024-02-14T09:03:40;17.65;;;10.45;;
46653;SDS011;38960;51.074;17.004;2024-02-14T09:06:08;14.05;;;9.63;;
46653;SDS011;38960;51.074;17.004;2024-02-14T09:08:34;19.13;;;10.23;;
46653;SDS011;38960;51.074;17.004;2024-02-14T09:10:59;16.15;;;9.90;;
46653;SDS011;38960;51.074;17.004;2024-02-14T09:13:25;16.80;;;9.98;;
46653;SDS011;38960;51.074;17.004;2024-02-14T09:15:52;17.65;;;9.65;;
46653;SDS011;38960;51.074;17.004;2024-02-14T09:18:19;20.65;;;9.68;;
46653;SDS011;38960;51.074;17.004;2024-02-14T09:20:45;18.10;;;10.52;;
46653;SDS011;38960;51.074;17.004;2024-02-14T09:23:15;20.15;;;10.48;;
46653;SDS011;38960;51.074;17.004;2024-02-14T09:25:45;17.10;;;10.53;;
46653;SDS011;38960;51.074;17.004;2024-02-14T09:28:12;17.17;;;10.18;;
46653;SDS011;38960;51.074;17.004;2024-02-14T09:30:39;19.95;;;11.70;;
46653;SDS011;38960;51.074;17.004;2024-02-14T09:33:05;18.65;;;11.52;;
46653;SDS011;38960;51.074;17.004;2024-02-14T09:35:30;16.67;;;10.32;;
46653;SDS011;38960;51.074;17.004;2024-02-14T09:37:56;24.77;;;9.93;;
46653;SDS011;38960;51.074;17.004;2024-02-14T09:40:21;14.38;;;9.35;;
46653;SDS011;38960;51.074;17.004;2024-02-14T09:45:27;15.20;;;9.73;;
46653;SDS011;38960;51.074;17.004;2024-02-14T09:47:53;20.48;;;10.52;;
46653;SDS011;38960;51.074;17.004;2024-02-14T09:50:20;20.00;;;10.18;;
46653;SDS011;38960;51.074;17.004;2024-02-14T09:52:47;13.45;;;8.27;;
46653;SDS011;38960;51.074;17.004;2024-02-14T09:55:14;16.67;;;9.10;;
46653;SDS011;38960;51.074;17.004;2024-02-14T09:57:40;16.25;;;9.75;;
46653;SDS011;38960;51.074;17.004;2024-02-14T10:00:09;20.35;;;9.68;;
46653;SDS011;38960;51.074;17.004;2024-02-14T10:02:35;12.90;;;7.85;;
46653;SDS011;38960;51.074;17.004;2024-02-14T10:05:01;12.02;;;7.47;;
46653;SDS011;38960;51.074;17.004;2024-02-14T10:07:27;15.30;;;8.55;;
46653;SDS011;38960;51.074;17.004;2024-02-14T10:09:53;15.35;;;8.43;;
46653;SDS011;38960;51.074;17.004;2024-02-14T10:12:22;13.70;;;8.05;;
46653;SDS011;38960;51.074;17.004;2024-02-14T10:14:48;13.90;;;7.55;;
46653;SDS011;38960;51.074;17.004;2024-02-14T10:17:20;14.13;;;8.55;;
46653;SDS011;38960;51.074;17.004;2024-02-14T10:22:21;17.42;;;6.95;;
46653;SDS011;38960;51.074;17.004;2024-02-14T10:24:47;12.50;;;7.47;;
46653;SDS011;38960;51.074;17.004;2024-02-14T10:27:12;13.65;;;6.60;;
46653;SDS011;38960;51.074;17.004;2024-02-14T10:42:38;13.32;;;6.80;;
46653;SDS011;38960;51.074;17.004;2024-02-14T10:45:04;9.80;;;5.90;;
46653;SDS011;38960;51.074;17.004;2024-02-14T10:47:34;14.93;;;6.00;;
46653;SDS011;38960;51.074;17.004;2024-02-14T10:50:06;11.00;;;5.13;;
46653;SDS011;38960;51.074;17.004;2024-02-14T10:52:34;8.57;;;5.88;;
46653;SDS011;38960;51.074;17.004;2024-02-14T10:55:04;7.55;;;5.18;;
46653;SDS011;38960;51.074;17.004;2024-02-14T11:05:15;11.00;;;5.28;;
46653;SDS011;38960;51.074;17.004;2024-02-14T11:08:24;10.88;;;4.60;;
46653;SDS011;38960;51.074;17.004;2024-02-14T11:10:36;9.00;;;5.22;;
46653;SDS011;38960;51.074;17.004;2024-02-14T11:16:01;9.45;;;4.88;;
46653;SDS011;38960;51.074;17.004;2024-02-14T11:21:35;13.38;;;4.57;;
46653;SDS011;38960;51.074;17.004;2024-02-14T11:24:05;8.02;;;4.40;;
46653;SDS011;38960;51.074;17.004;2024-02-14T11:37:03;14.63;;;5.57;;
46653;SDS011;38960;51.074;17.004;2024-02-14T11:39:30;12.77;;;6.40;;
46653;SDS011;38960;51.074;17.004;2024-02-14T11:48:27;10.18;;;5.72;;
46653;SDS011;38960;51.074;17.004;2024-02-14T11:54:50;57.20;;;17.42;;
46653;SDS011;38960;51.074;17.004;2024-02-14T12:14:28;10.50;;;5.43;;
46653;SDS011;38960;51.074;17.004;2024-02-14T12:17:01;11.27;;;6.30;;
46653;SDS011;38960;51.074;17.004;2024-02-14T12:27:22;22.00;;;9.75;;
46653;SDS011;38960;51.074;17.004;2024-02-14T12:33:14;27.63;;;7.53;;
46653;SDS011;38960;51.074;17.004;2024-02-14T12:46:18;22.90;;;8.73;;
46653;SDS011;38960;51.074;17.004;2024-02-14T13:35:39;22.10;;;7.07;;
46653;SDS011;38960;51.074;17.004;2024-02-14T13:38:05;10.40;;;4.82;;
46653;SDS011;38960;51.074;17.004;2024-02-14T13:40:35;11.98;;;5.72;;
46653;SDS011;38960;51.074;17.004;2024-02-14T14:01:34;38.13;;;16.67;;
46653;SDS011;38960;51.074;17.004;2024-02-14T14:07:47;16.67;;;7.25;;
46653;SDS011;38960;51.074;17.004;2024-02-14T14:39:15;32.65;;;14.23;;
46653;SDS011;38960;51.074;17.004;2024-02-14T14:41:40;30.98;;;10.77;;
46653;SDS011;38960;51.074;17.004;2024-02-14T14:44:07;19.17;;;7.63;;
46653;SDS011;38960;51.074;17.004;2024-02-14T14:46:32;17.05;;;9.23;;
46653;SDS011;38960;51.074;17.004;2024-02-14T14:49:00;11.25;;;6.05;;
46653;SDS011;38960;51.074;17.004;2024-02-14T19:50:35;25.02;;;13.15;;
46653;SDS011;38960;51.074;17.004;2024-02-14T19:53:00;31.58;;;12.95;;
46653;SDS011;38960;51.074;17.004;2024-02-14T19:55:26;25.75;;;12.70;;
46653;SDS011;38960;51.074;17.004;2024-02-14T19:57:52;26.13;;;12.90;;
46653;SDS011;38960;51.074;17.004;2024-02-14T20:00:17;22.38;;;14.95;;
46653;SDS011;38960;51.074;17.004;2024-02-14T20:02:43;33.17;;;15.85;;
46653;SDS011;38960;51.074;17.004;2024-02-14T20:05:09;24.08;;;13.88;;
46653;SDS011;38960;51.074;17.004;2024-02-14T20:07:35;22.58;;;12.80;;
46653;SDS011;38960;51.074;17.004;2024-02-14T20:10:01;23.52;;;13.30;;
46653;SDS011;38960;51.074;17.004;2024-02-14T20:12:29;27.75;;;12.20;;
